createdAt,value
2024-05-09T00:01:59.922Z,2.40
2024-05-09T00:07:05.148Z,2.60
2024-05-09T00:12:09.923Z,2.70
2024-05-09T00:17:14.629Z,2.20
2024-05-09T00:22:19.287Z,2.40
2024-05-09T00:27:23.915Z,2.10
2024-05-09T00:32:28.720Z,2.10
2024-05-09T00:37:33.366Z,2.20
2024-05-09T00:42:39.772Z,2.30
2024-05-09T00:47:46.477Z,2.60
2024-05-09T00:52:51.613Z,2.90
2024-05-09T00:57:56.428Z,3.00
2024-05-09T01:03:01.281Z,3.00
2024-05-09T01:08:07.808Z,2.10
2024-05-09T01:13:12.674Z,2.30
2024-05-09T01:18:17.954Z,2.20
2024-05-09T01:23:22.658Z,2.50
2024-05-09T01:28:27.212Z,2.60
2024-05-09T01:33:32.162Z,2.70
2024-05-09T01:38:37.152Z,3.00
2024-05-09T01:43:41.730Z,3.40
2024-05-09T01:48:46.963Z,2.90
2024-05-09T01:53:52.445Z,2.70
2024-05-09T01:58:56.978Z,2.80
2024-05-09T02:04:02.070Z,2.70
2024-05-09T02:09:06.811Z,3.50
2024-05-09T02:14:11.464Z,3.00
2024-05-09T02:19:16.161Z,3.30
2024-05-09T02:24:20.791Z,3.10
2024-05-09T02:29:25.396Z,3.50
2024-05-09T02:34:30.322Z,3.10
2024-05-09T02:39:35.451Z,2.90
2024-05-09T02:44:39.856Z,3.20
2024-05-09T02:49:44.340Z,3.60
2024-05-09T02:54:48.695Z,2.80
2024-05-09T02:59:53.200Z,4.20
2024-05-09T03:04:58.158Z,3.60
2024-05-09T03:10:03.500Z,3.20
2024-05-09T03:15:09.810Z,3.60
2024-05-09T03:20:20.588Z,3.20
2024-05-09T03:25:29.045Z,3.30
2024-05-09T03:30:40.340Z,3.40
2024-05-09T03:35:48.039Z,3.60
2024-05-09T03:40:53.383Z,3.70
2024-05-09T03:45:58.313Z,3.50
2024-05-09T03:51:03.061Z,2.90
2024-05-09T03:56:10.215Z,2.60
2024-05-09T04:01:15.043Z,2.60
2024-05-09T04:06:23.688Z,3.10
2024-05-09T04:11:28.432Z,1.40
2024-05-09T04:16:33.260Z,2.00
2024-05-09T04:21:38.061Z,2.10
2024-05-09T04:31:46.399Z,2.40
2024-05-09T04:36:51.230Z,2.60
2024-05-09T04:41:56.736Z,2.20
2024-05-09T04:47:02.192Z,2.60
2024-05-09T04:52:08.312Z,2.20
2024-05-09T04:57:13.622Z,2.30
2024-05-09T05:02:18.975Z,2.60
2024-05-09T05:07:25.207Z,2.70
2024-05-09T05:12:50.221Z,3.30
2024-05-09T05:17:56.709Z,3.00
2024-05-09T05:23:02.379Z,2.60
2024-05-09T05:28:08.673Z,2.40
2024-05-09T05:33:15.697Z,2.30
2024-05-09T05:38:25.038Z,2.80
2024-05-09T05:43:32.848Z,2.10
2024-05-09T05:48:38.227Z,2.00
2024-05-09T05:53:44.413Z,2.20
2024-05-09T05:58:49.876Z,1.90
2024-05-09T06:03:55.524Z,1.90
2024-05-09T06:09:01.155Z,1.80
2024-05-09T06:14:06.667Z,1.90
2024-05-09T06:19:12.115Z,1.80
2024-05-09T06:24:17.777Z,1.50
2024-05-09T06:29:23.422Z,1.30
2024-05-09T06:34:29.351Z,1.30
2024-05-09T06:39:34.720Z,1.50
2024-05-09T06:44:40.077Z,1.60
2024-05-09T06:49:45.794Z,1.70
2024-05-09T06:54:51.195Z,1.50
2024-05-09T06:59:59.313Z,1.80
2024-05-09T07:05:05.413Z,1.40
2024-05-09T07:10:17.781Z,1.60
2024-05-09T07:15:27.768Z,1.40
2024-05-09T07:20:35.140Z,1.60
2024-05-09T07:25:41.932Z,1.10
2024-05-09T07:30:54.899Z,1.20
2024-05-09T07:36:00.202Z,1.20
2024-05-09T07:41:06.377Z,1.30
2024-05-09T07:47:14.103Z,1.50
2024-05-09T07:56:49.220Z,2.10
2024-05-09T08:01:54.826Z,1.60
2024-05-09T08:07:01.123Z,1.80
2024-05-09T08:12:08.882Z,1.80
2024-05-09T08:17:16.003Z,1.70
2024-05-09T08:22:21.680Z,1.50
2024-05-09T08:27:27.558Z,1.60
2024-05-09T08:32:34.650Z,1.40
2024-05-09T08:37:40.789Z,1.70
2024-05-09T08:42:50.710Z,1.70
2024-05-09T08:47:57.446Z,1.50
2024-05-09T08:53:03.847Z,1.80
2024-05-09T08:58:11.016Z,1.50
2024-05-09T09:03:19.204Z,1.50
2024-05-09T09:08:26.851Z,1.60
2024-05-09T09:13:32.672Z,1.90
2024-05-09T09:18:38.431Z,1.60
2024-05-09T09:23:45.421Z,1.70
2024-05-09T09:28:52.079Z,1.50
2024-05-09T09:33:56.881Z,1.30
2024-05-09T09:39:02.623Z,1.40
2024-05-09T09:44:10.761Z,1.40
2024-05-09T09:49:17.358Z,1.60
2024-05-09T09:54:23.322Z,1.70
2024-05-09T09:59:30.446Z,1.80
2024-05-09T10:04:36.929Z,1.90
2024-05-09T10:09:43.040Z,1.60
2024-05-09T10:14:49.398Z,1.40
2024-05-09T10:20:14.452Z,1.80
2024-05-09T10:25:27.265Z,1.80
2024-05-09T10:30:36.195Z,1.70
2024-05-09T10:35:53.047Z,1.70
2024-05-09T10:41:00.324Z,1.40
2024-05-09T10:46:07.436Z,2.00
2024-05-09T10:51:13.769Z,1.80
2024-05-09T10:56:19.926Z,1.50
2024-05-09T11:01:25.616Z,1.80
2024-05-09T11:06:31.673Z,1.60
2024-05-09T11:11:38.130Z,1.60
2024-05-09T11:16:44.406Z,1.50
2024-05-09T11:21:53.720Z,1.40
2024-05-09T11:27:01.108Z,1.80
2024-05-09T11:32:11.134Z,1.50
2024-05-09T11:37:16.844Z,1.60
2024-05-09T11:42:22.288Z,1.70
2024-05-09T11:47:28.693Z,1.40
2024-05-09T11:52:34.287Z,1.60
2024-05-09T11:57:39.853Z,1.90
2024-05-09T12:02:45.662Z,1.70
2024-05-09T12:07:51.782Z,1.50
2024-05-09T12:12:57.855Z,1.90
2024-05-09T12:18:04.374Z,1.80
2024-05-09T12:23:11.146Z,1.60
2024-05-09T12:28:18.122Z,1.80
2024-05-09T12:33:24.859Z,1.40
2024-05-09T12:38:31.187Z,1.80
2024-05-09T12:43:37.390Z,1.80
2024-05-09T12:48:43.805Z,1.90
2024-05-09T12:53:49.140Z,1.80
2024-05-09T12:58:54.571Z,1.70
2024-05-09T13:04:00.790Z,1.70
2024-05-09T13:09:06.420Z,1.90
2024-05-09T13:14:11.733Z,1.80
2024-05-09T13:19:17.668Z,2.00
2024-05-09T13:24:23.014Z,1.80
2024-05-09T13:29:28.342Z,1.60
2024-05-09T13:34:34.037Z,2.40
2024-05-09T13:39:39.454Z,2.30
2024-05-09T13:44:44.110Z,2.70
2024-05-09T13:49:49.292Z,2.00
2024-05-09T13:54:54.724Z,1.50
2024-05-09T14:00:00.361Z,1.90
2024-05-09T14:05:06.819Z,1.40
2024-05-09T14:10:22.479Z,1.90
2024-05-09T14:15:32.267Z,1.70
2024-05-09T14:20:38.675Z,1.80
2024-05-09T14:25:45.528Z,1.40
2024-05-09T14:30:52.219Z,2.00
2024-05-09T14:35:58.191Z,1.30
2024-05-09T14:41:03.698Z,2.00
2024-05-09T14:46:09.255Z,2.00
2024-05-09T14:51:16.031Z,1.90
2024-05-09T14:56:21.409Z,1.70
2024-05-09T15:01:27.769Z,1.80
2024-05-09T15:06:33.704Z,2.60
2024-05-09T15:11:39.813Z,2.90
2024-05-09T15:16:45.600Z,2.10
2024-05-09T15:21:51.248Z,2.10
2024-05-09T15:26:56.726Z,1.80
2024-05-09T15:32:02.129Z,1.50
2024-05-09T15:37:08.553Z,1.60
2024-05-09T15:42:14.065Z,1.70
2024-05-09T15:47:19.962Z,2.40
2024-05-09T15:52:25.268Z,2.40
2024-05-09T15:57:30.910Z,2.10
2024-05-09T16:02:36.531Z,3.20
2024-05-09T16:07:42.778Z,3.20
2024-05-09T16:12:48.807Z,4.00
2024-05-09T16:17:55.625Z,2.40
2024-05-09T16:23:01.824Z,1.90
2024-05-09T16:28:10.505Z,2.40
2024-05-09T16:33:18.973Z,3.10
2024-05-09T16:38:25.468Z,3.50
2024-05-09T16:43:30.903Z,2.80
2024-05-09T16:48:38.639Z,2.40
2024-05-09T16:53:44.064Z,2.50
2024-05-09T16:58:49.478Z,3.30
2024-05-09T17:03:55.289Z,7.20
2024-05-09T17:09:08.392Z,5.10
2024-05-09T17:14:17.183Z,4.00
2024-05-09T17:19:22.682Z,6.20
2024-05-09T17:24:28.392Z,5.40
2024-05-09T17:29:33.843Z,4.80
2024-05-09T17:34:39.352Z,4.70
2024-05-09T17:39:45.104Z,4.40
2024-05-09T17:44:50.576Z,5.10
2024-05-09T17:49:55.927Z,6.00
2024-05-09T17:55:01.560Z,7.30
2024-05-09T18:00:11.725Z,6.00
2024-05-09T18:05:19.803Z,3.80
2024-05-09T18:10:32.838Z,2.40
2024-05-09T18:15:44.571Z,1.90
2024-05-09T18:20:50.114Z,2.10
2024-05-09T18:25:56.691Z,1.90
2024-05-09T18:31:02.050Z,1.90
2024-05-09T18:36:10.024Z,1.80
2024-05-09T18:41:15.618Z,2.00
2024-05-09T18:46:20.336Z,2.30
2024-05-09T18:51:25.813Z,1.90
2024-05-09T18:56:31.126Z,2.20
2024-05-09T19:01:40.734Z,3.30
2024-05-09T19:06:46.351Z,3.30
2024-05-09T19:11:51.696Z,3.30
2024-05-09T19:16:57.302Z,4.70
2024-05-09T19:22:06.184Z,6.50
2024-05-09T19:27:12.782Z,9.30
2024-05-09T19:32:18.241Z,8.00
2024-05-09T19:37:22.908Z,7.80
2024-05-09T19:42:29.578Z,7.90
2024-05-09T19:47:35.634Z,6.70
2024-05-09T19:52:40.853Z,5.20
2024-05-09T19:57:46.318Z,5.10
2024-05-09T20:02:51.739Z,6.50
2024-05-09T20:07:58.080Z,7.90
2024-05-09T20:13:04.101Z,10.20
2024-05-09T20:18:10.127Z,11.00
2024-05-09T20:23:15.590Z,7.70
2024-05-09T20:28:21.468Z,5.10
2024-05-09T20:33:27.156Z,5.70
2024-05-09T20:38:33.128Z,6.20
2024-05-09T20:43:38.459Z,5.50
2024-05-09T20:48:44.082Z,5.20
2024-05-09T20:53:50.045Z,5.70
2024-05-09T20:58:55.323Z,5.00
2024-05-09T21:04:01.218Z,5.00
2024-05-09T21:09:06.015Z,3.90
2024-05-09T21:14:11.306Z,4.20
2024-05-09T21:19:17.034Z,5.10
2024-05-09T21:24:22.693Z,5.50
2024-05-09T21:29:28.583Z,6.10
2024-05-09T21:34:34.259Z,5.30
2024-05-09T21:39:40.282Z,4.10
2024-05-09T21:44:45.958Z,4.00
2024-05-09T21:49:51.516Z,6.80
2024-05-09T21:54:57.353Z,5.40
2024-05-09T22:00:05.666Z,7.10
2024-05-09T22:05:14.812Z,11.70
2024-05-09T22:10:26.246Z,6.90
2024-05-09T22:15:39.606Z,5.20
2024-05-09T22:20:46.728Z,4.30
2024-05-09T22:25:51.773Z,4.50
2024-05-09T22:30:58.486Z,4.00
2024-05-09T22:36:04.301Z,4.50
2024-05-09T22:41:10.307Z,4.10
2024-05-09T22:46:15.981Z,4.50
2024-05-09T22:51:21.817Z,4.50
2024-05-09T22:56:29.903Z,6.70
2024-05-09T23:01:35.514Z,7.10
2024-05-09T23:06:43.393Z,7.20
2024-05-09T23:11:49.191Z,7.60
2024-05-09T23:16:54.815Z,8.10
2024-05-09T23:22:00.561Z,7.30
2024-05-09T23:27:06.544Z,7.70
2024-05-09T23:32:13.058Z,7.60
2024-05-09T23:37:18.839Z,7.70
2024-05-09T23:42:24.737Z,7.60
2024-05-09T23:47:30.423Z,6.50
2024-05-09T23:52:36.137Z,7.00
2024-05-09T23:57:41.636Z,8.00
